createdAt,value
2023-05-06T00:00:02.321Z,13.83
2023-05-06T00:15:01.929Z,13.64
2023-05-06T00:30:01.586Z,13.54
2023-05-06T00:45:02.214Z,13.24
2023-05-06T01:00:01.780Z,13.13
2023-05-06T01:15:02.413Z,12.92
2023-05-06T01:30:02.074Z,12.74
2023-05-06T01:45:01.762Z,12.51
2023-05-06T02:00:02.415Z,12.28
2023-05-06T02:15:02.078Z,12.13
2023-05-06T02:30:01.758Z,12.11
2023-05-06T02:45:02.382Z,11.93
2023-05-06T03:00:01.958Z,11.92
2023-05-06T03:15:01.593Z,11.88
2023-05-06T03:30:02.229Z,11.84
2023-05-06T03:45:01.833Z,11.83
2023-05-06T04:00:02.548Z,11.79
2023-05-06T04:15:02.228Z,11.82
2023-05-06T04:30:02.418Z,11.84
2023-05-06T04:45:02.020Z,11.79
2023-05-06T05:00:01.600Z,11.83
2023-05-06T05:15:02.253Z,11.88
2023-05-06T05:30:01.932Z,11.99
2023-05-06T05:45:01.516Z,12.15
2023-05-06T06:00:02.166Z,12.41
2023-05-06T06:15:01.884Z,12.6
2023-05-06T06:30:01.576Z,12.88
2023-05-06T06:45:02.222Z,13.16
2023-05-06T07:00:01.865Z,13.63
2023-05-06T07:15:02.487Z,14.15
2023-05-06T07:30:02.107Z,14.7
2023-05-06T07:45:01.733Z,15.37
2023-05-06T08:00:02.354Z,15.92
2023-05-06T08:15:02.025Z,16.5
2023-05-06T08:30:01.716Z,17.09
2023-05-06T08:45:02.316Z,17.7
2023-05-06T09:00:02.014Z,18.46
2023-05-06T09:15:01.710Z,18.64
2023-05-06T09:30:02.517Z,18.78
2023-05-06T09:45:02.482Z,18.94
2023-05-06T10:00:02.182Z,19.34
2023-05-06T10:15:01.832Z,19.78
2023-05-06T10:30:02.458Z,19.96
2023-05-06T10:45:02.133Z,20.34
2023-05-06T11:00:01.789Z,20.62
2023-05-06T11:15:02.401Z,20.99
2023-05-06T11:30:02.050Z,21.13
2023-05-06T11:45:01.619Z,21.61
2023-05-06T12:00:02.191Z,21.95
2023-05-06T12:15:01.777Z,22.41
2023-05-06T12:30:02.428Z,22.69
2023-05-06T12:45:02.066Z,22.68
2023-05-06T13:00:01.707Z,22.7
2023-05-06T13:15:02.287Z,23
2023-05-06T13:30:01.888Z,22.9
2023-05-06T13:45:02.520Z,23.09
2023-05-06T14:00:02.239Z,23.14
2023-05-06T14:15:02.036Z,23.12
2023-05-06T14:30:01.660Z,23.49
2023-05-06T14:45:02.291Z,23.59
2023-05-06T15:00:01.971Z,23.66
2023-05-06T15:15:01.616Z,23.68
2023-05-06T15:30:02.219Z,23.47
2023-05-06T15:45:01.812Z,23.62
2023-05-06T16:00:02.458Z,23.59
2023-05-06T16:15:02.111Z,23.55
2023-05-06T16:30:01.825Z,23.4
2023-05-06T16:45:02.454Z,23.01
2023-05-06T17:00:02.124Z,23
2023-05-06T17:15:01.743Z,22.61
2023-05-06T17:30:02.358Z,22.32
2023-05-06T17:45:01.952Z,22.09
2023-05-06T18:00:01.595Z,22
2023-05-06T18:15:02.187Z,21.73
2023-05-06T18:30:01.901Z,21.38
2023-05-06T18:45:02.548Z,21.16
2023-05-06T19:00:02.168Z,20.84
2023-05-06T19:15:01.910Z,20.41
2023-05-06T19:30:01.550Z,20.2
2023-05-06T19:45:02.135Z,19.95
2023-05-06T20:00:01.752Z,19.63
2023-05-06T20:15:02.375Z,19.42
2023-05-06T20:30:02.035Z,19.08
2023-05-06T20:45:01.786Z,18.95
2023-05-06T21:00:02.402Z,18.66
2023-05-06T21:15:02.066Z,18.64
2023-05-06T21:30:01.801Z,18.44
2023-05-06T21:45:02.432Z,18.12
2023-05-06T22:00:02.070Z,18.02
2023-05-06T22:15:01.784Z,17.8
2023-05-06T22:30:02.457Z,17.58
2023-05-06T22:45:02.053Z,17.45
2023-05-06T23:00:01.700Z,17.43
2023-05-06T23:15:02.322Z,17.16
2023-05-06T23:30:01.992Z,16.99
2023-05-06T23:45:01.604Z,16.68
